sensor_id;sensor_type;location;lat;lon;timestamp;pressure;altitude;pressure_sealevel;temperature;humidity
50364;BME280;36272;59.400;17.982;2023-04-21T00:04:10;102504.53;;;7.78;46.89
50364;BME280;36272;59.400;17.982;2023-04-21T00:09:13;102499.88;;;7.71;47.22
50364;BME280;36272;59.400;17.982;2023-04-21T00:14:15;102495.19;;;7.65;47.12
50364;BME280;36272;59.400;17.982;2023-04-21T00:19:18;102481.50;;;7.60;47.63
50364;BME280;36272;59.400;17.982;2023-04-21T00:24:20;102499.47;;;7.58;47.56
50364;BME280;36272;59.400;17.982;2023-04-21T00:29:21;102485.78;;;7.53;47.62
50364;BME280;36272;59.400;17.982;2023-04-21T00:34:23;102480.78;;;7.50;47.95
50364;BME280;36272;59.400;17.982;2023-04-21T00:39:25;102482.25;;;7.44;47.93
50364;BME280;36272;59.400;17.982;2023-04-21T00:44:26;102477.41;;;7.39;48.14
50364;BME280;36272;59.400;17.982;2023-04-21T00:49:28;102476.88;;;7.36;48.26
50364;BME280;36272;59.400;17.982;2023-04-21T00:54:30;102467.53;;;7.32;48.62
50364;BME280;36272;59.400;17.982;2023-04-21T00:59:31;102475.16;;;7.26;48.59
50364;BME280;36272;59.400;17.982;2023-04-21T01:04:33;102470.31;;;7.22;48.89
50364;BME280;36272;59.400;17.982;2023-04-21T01:09:40;102463.47;;;7.19;48.97
50364;BME280;36272;59.400;17.982;2023-04-21T01:14:41;102470.25;;;7.13;48.94
50364;BME280;36272;59.400;17.982;2023-04-21T01:19:43;102453.94;;;7.08;49.19
50364;BME280;36272;59.400;17.982;2023-04-21T01:24:47;102438.44;;;7.04;49.57
50364;BME280;36272;59.400;17.982;2023-04-21T01:29:51;102430.91;;;6.99;49.66
50364;BME280;36272;59.400;17.982;2023-04-21T01:34:53;102436.53;;;6.96;49.60
50364;BME280;36272;59.400;17.982;2023-04-21T01:39:58;102424.84;;;6.89;49.80
50364;BME280;36272;59.400;17.982;2023-04-21T01:45:00;102442.78;;;6.87;50.06
50364;BME280;36272;59.400;17.982;2023-04-21T01:50:02;102436.44;;;6.79;50.20
50364;BME280;36272;59.400;17.982;2023-04-21T01:55:04;102431.44;;;6.76;50.42
50364;BME280;36272;59.400;17.982;2023-04-21T02:00:06;102424.88;;;6.70;50.60
50364;BME280;36272;59.400;17.982;2023-04-21T02:05:09;102427.03;;;6.67;50.66
50364;BME280;36272;59.400;17.982;2023-04-21T02:10:11;102425.66;;;6.63;50.80
50364;BME280;36272;59.400;17.982;2023-04-21T02:15:13;102425.97;;;6.60;51.05
50364;BME280;36272;59.400;17.982;2023-04-21T02:20:14;102422.94;;;6.54;51.32
50364;BME280;36272;59.400;17.982;2023-04-21T02:25:16;102432.19;;;6.50;51.49
50364;BME280;36272;59.400;17.982;2023-04-21T02:30:17;102426.50;;;6.45;51.60
50364;BME280;36272;59.400;17.982;2023-04-21T02:35:19;102427.16;;;6.39;51.95
50364;BME280;36272;59.400;17.982;2023-04-21T02:40:21;102418.63;;;6.35;51.91
50364;BME280;36272;59.400;17.982;2023-04-21T02:45:22;102431.22;;;6.33;52.00
50364;BME280;36272;59.400;17.982;2023-04-21T02:50:24;102422.88;;;6.28;52.41
50364;BME280;36272;59.400;17.982;2023-04-21T02:55:26;102422.47;;;6.23;52.97
50364;BME280;36272;59.400;17.982;2023-04-21T03:00:28;102430.63;;;6.21;53.07
50364;BME280;36272;59.400;17.982;2023-04-21T03:05:29;102429.41;;;6.16;53.29
50364;BME280;36272;59.400;17.982;2023-04-21T03:10:31;102423.03;;;6.08;53.74
50364;BME280;36272;59.400;17.982;2023-04-21T03:15:33;102430.31;;;6.06;53.64
50364;BME280;36272;59.400;17.982;2023-04-21T03:20:34;102422.78;;;6.02;53.83
50364;BME280;36272;59.400;17.982;2023-04-21T03:25:37;102411.59;;;5.98;54.00
50364;BME280;36272;59.400;17.982;2023-04-21T03:30:38;102411.38;;;5.91;54.27
50364;BME280;36272;59.400;17.982;2023-04-21T03:35:40;102415.00;;;5.90;54.39
50364;BME280;36272;59.400;17.982;2023-04-21T03:40:42;102418.47;;;5.91;54.56
50364;BME280;36272;59.400;17.982;2023-04-21T03:45:44;102413.34;;;5.89;54.65
50364;BME280;36272;59.400;17.982;2023-04-21T03:50:45;102401.03;;;5.88;54.97
50364;BME280;36272;59.400;17.982;2023-04-21T03:55:49;102401.03;;;5.88;55.57
50364;BME280;36272;59.400;17.982;2023-04-21T04:00:51;102415.00;;;5.90;55.70
50364;BME280;36272;59.400;17.982;2023-04-21T04:05:52;102411.50;;;5.90;55.77
50364;BME280;36272;59.400;17.982;2023-04-21T04:10:57;102388.28;;;5.92;56.22
50364;BME280;36272;59.400;17.982;2023-04-21T04:15:59;102408.25;;;5.96;56.06
50364;BME280;36272;59.400;17.982;2023-04-21T04:21:07;102391.31;;;5.97;56.57
50364;BME280;36272;59.400;17.982;2023-04-21T04:26:08;102398.72;;;6.03;56.28
50364;BME280;36272;59.400;17.982;2023-04-21T04:31:11;102397.56;;;6.06;56.21
50364;BME280;36272;59.400;17.982;2023-04-21T04:36:13;102395.31;;;6.11;56.15
50364;BME280;36272;59.400;17.982;2023-04-21T04:41:15;102392.06;;;6.17;56.38
50364;BME280;36272;59.400;17.982;2023-04-21T04:46:17;102389.59;;;6.24;56.61
50364;BME280;36272;59.400;17.982;2023-04-21T04:51:20;102392.22;;;6.34;56.60
50364;BME280;36272;59.400;17.982;2023-04-21T04:56:23;102391.25;;;6.43;56.32
50364;BME280;36272;59.400;17.982;2023-04-21T05:01:27;102377.06;;;6.52;55.74
50364;BME280;36272;59.400;17.982;2023-04-21T05:06:30;102374.47;;;6.87;54.47
50364;BME280;36272;59.400;17.982;2023-04-21T05:11:32;102395.25;;;6.83;54.51
50364;BME280;36272;59.400;17.982;2023-04-21T05:16:34;102397.94;;;6.92;54.52
50364;BME280;36272;59.400;17.982;2023-04-21T05:21:36;102389.56;;;7.05;54.76
50364;BME280;36272;59.400;17.982;2023-04-21T05:26:37;102396.78;;;7.21;54.79
50364;BME280;36272;59.400;17.982;2023-04-21T05:31:39;102382.84;;;7.35;55.09
50364;BME280;36272;59.400;17.982;2023-04-21T05:36:41;102375.94;;;7.51;55.43
50364;BME280;36272;59.400;17.982;2023-04-21T05:41:43;102370.69;;;7.67;55.62
50364;BME280;36272;59.400;17.982;2023-04-21T05:46:44;102376.03;;;7.84;55.88
50364;BME280;36272;59.400;17.982;2023-04-21T05:51:46;102365.91;;;8.04;56.33
50364;BME280;36272;59.400;17.982;2023-04-21T05:56:48;102372.75;;;8.23;56.47
50364;BME280;36272;59.400;17.982;2023-04-21T06:01:49;102372.25;;;8.44;56.49
50364;BME280;36272;59.400;17.982;2023-04-21T06:06:51;102369.94;;;8.66;56.80
50364;BME280;36272;59.400;17.982;2023-04-21T06:11:53;102357.41;;;8.83;56.75
50364;BME280;36272;59.400;17.982;2023-04-21T06:16:54;102363.03;;;9.05;56.95
50364;BME280;36272;59.400;17.982;2023-04-21T06:21:56;102351.94;;;9.25;57.05
50364;BME280;36272;59.400;17.982;2023-04-21T06:27:01;102347.84;;;9.45;57.01
50364;BME280;36272;59.400;17.982;2023-04-21T06:32:03;102347.56;;;9.63;57.22
50364;BME280;36272;59.400;17.982;2023-04-21T06:37:04;102347.75;;;9.85;57.34
50364;BME280;36272;59.400;17.982;2023-04-21T06:42:06;102338.06;;;10.07;57.22
50364;BME280;36272;59.400;17.982;2023-04-21T06:47:08;102338.41;;;10.27;57.23
50364;BME280;36272;59.400;17.982;2023-04-21T06:52:09;102330.09;;;10.46;56.99
50364;BME280;36272;59.400;17.982;2023-04-21T06:57:11;102324.03;;;10.67;56.92
50364;BME280;36272;59.400;17.982;2023-04-21T07:02:15;102322.28;;;10.89;57.05
50364;BME280;36272;59.400;17.982;2023-04-21T07:07:17;102322.38;;;11.11;56.55
50364;BME280;36272;59.400;17.982;2023-04-21T07:12:18;102309.00;;;11.33;56.48
50364;BME280;36272;59.400;17.982;2023-04-21T07:17:20;102303.69;;;11.54;56.23
50364;BME280;36272;59.400;17.982;2023-04-21T07:22:22;102302.69;;;11.77;56.10
50364;BME280;36272;59.400;17.982;2023-04-21T07:27:23;102290.31;;;11.98;55.97
50364;BME280;36272;59.400;17.982;2023-04-21T07:32:25;102283.50;;;12.24;55.73
50364;BME280;36272;59.400;17.982;2023-04-21T07:37:27;102283.88;;;12.42;55.52
50364;BME280;36272;59.400;17.982;2023-04-21T07:42:29;102276.13;;;12.61;55.19
50364;BME280;36272;59.400;17.982;2023-04-21T07:47:31;102263.41;;;12.83;55.07
50364;BME280;36272;59.400;17.982;2023-04-21T07:52:38;102250.06;;;13.03;55.14
50364;BME280;36272;59.400;17.982;2023-04-21T07:57:39;102258.22;;;13.23;54.81
50364;BME280;36272;59.400;17.982;2023-04-21T08:02:41;102256.41;;;13.37;54.58
50364;BME280;36272;59.400;17.982;2023-04-21T08:07:43;102261.00;;;13.57;54.16
50364;BME280;36272;59.400;17.982;2023-04-21T08:12:44;102256.47;;;13.71;53.83
50364;BME280;36272;59.400;17.982;2023-04-21T08:17:46;102244.28;;;13.89;54.09
50364;BME280;36272;59.400;17.982;2023-04-21T08:22:48;102244.25;;;14.09;53.28
50364;BME280;36272;59.400;17.982;2023-04-21T08:27:49;102239.25;;;14.26;53.28
50364;BME280;36272;59.400;17.982;2023-04-21T08:32:51;102232.19;;;14.45;53.15
50364;BME280;36272;59.400;17.982;2023-04-21T08:37:53;102229.22;;;14.60;52.81
50364;BME280;36272;59.400;17.982;2023-04-21T08:42:54;102216.38;;;14.76;52.59
50364;BME280;36272;59.400;17.982;2023-04-21T08:47:58;102198.88;;;14.92;52.39
50364;BME280;36272;59.400;17.982;2023-04-21T08:53:00;102207.09;;;15.10;52.60
50364;BME280;36272;59.400;17.982;2023-04-21T08:58:05;102192.03;;;15.28;52.10
50364;BME280;36272;59.400;17.982;2023-04-21T09:03:07;102209.72;;;15.49;51.71
50364;BME280;36272;59.400;17.982;2023-04-21T09:08:12;102210.22;;;15.65;51.18
50364;BME280;36272;59.400;17.982;2023-04-21T09:13:15;102187.09;;;16.01;50.89
50364;BME280;36272;59.400;17.982;2023-04-21T09:18:19;102194.38;;;16.00;50.54
50364;BME280;36272;59.400;17.982;2023-04-21T09:23:22;102202.94;;;16.16;50.13
50364;BME280;36272;59.400;17.982;2023-04-21T09:28:29;102183.69;;;16.31;49.82
50364;BME280;36272;59.400;17.982;2023-04-21T09:33:32;102192.22;;;16.46;49.38
50364;BME280;36272;59.400;17.982;2023-04-21T09:38:35;102176.22;;;16.63;49.27
50364;BME280;36272;59.400;17.982;2023-04-21T09:43:36;102181.16;;;16.85;48.82
50364;BME280;36272;59.400;17.982;2023-04-21T09:48:42;102157.28;;;17.13;48.66
50364;BME280;36272;59.400;17.982;2023-04-21T09:53:46;102150.06;;;17.37;48.59
50364;BME280;36272;59.400;17.982;2023-04-21T09:58:52;102146.31;;;17.62;47.83
50364;BME280;36272;59.400;17.982;2023-04-21T10:03:54;102153.25;;;17.81;47.57
50364;BME280;36272;59.400;17.982;2023-04-21T10:08:57;102143.72;;;18.03;47.12
50364;BME280;36272;59.400;17.982;2023-04-21T10:13:59;102154.63;;;18.20;46.27
50364;BME280;36272;59.400;17.982;2023-04-21T10:19:00;102135.50;;;18.38;46.32
50364;BME280;36272;59.400;17.982;2023-04-21T10:24:05;102112.34;;;18.60;45.76
50364;BME280;36272;59.400;17.982;2023-04-21T10:29:07;102110.56;;;18.65;45.68
50364;BME280;36272;59.400;17.982;2023-04-21T10:34:12;102114.47;;;18.86;45.47
50364;BME280;36272;59.400;17.982;2023-04-21T10:44:41;102101.22;;;19.19;44.94
50364;BME280;36272;59.400;17.982;2023-04-21T10:49:43;102087.34;;;19.55;44.67
50364;BME280;36272;59.400;17.982;2023-04-21T10:59:47;102079.97;;;20.12;43.09
50364;BME280;36272;59.400;17.982;2023-04-21T11:04:51;102086.75;;;20.64;42.92
50364;BME280;36272;59.400;17.982;2023-04-21T11:10:18;102076.69;;;21.67;41.74
50364;BME280;36272;59.400;17.982;2023-04-21T11:15:20;102080.84;;;24.03;38.44
50364;BME280;36272;59.400;17.982;2023-04-21T11:20:22;102073.63;;;27.23;34.88
50364;BME280;36272;59.400;17.982;2023-04-21T11:25:23;102074.69;;;30.18;32.50
50364;BME280;36272;59.400;17.982;2023-04-21T11:30:32;102058.94;;;32.55;30.65
50364;BME280;36272;59.400;17.982;2023-04-21T11:35:39;102046.22;;;31.27;30.98
50364;BME280;36272;59.400;17.982;2023-04-21T11:40:47;102033.78;;;31.93;30.44
50364;BME280;36272;59.400;17.982;2023-04-21T11:45:49;102048.59;;;34.58;28.01
50364;BME280;36272;59.400;17.982;2023-04-21T11:50:51;102026.00;;;36.38;27.18
50364;BME280;36272;59.400;17.982;2023-04-21T11:55:53;102027.03;;;37.54;26.54
50364;BME280;36272;59.400;17.982;2023-04-21T12:00:56;102022.31;;;39.20;25.16
50364;BME280;36272;59.400;17.982;2023-04-21T12:05:58;102009.97;;;39.28;25.04
50364;BME280;36272;59.400;17.982;2023-04-21T12:11:01;101995.94;;;40.49;24.19
50364;BME280;36272;59.400;17.982;2023-04-21T12:16:03;102008.63;;;41.48;23.47
50364;BME280;36272;59.400;17.982;2023-04-21T12:21:05;102007.59;;;41.98;23.26
50364;BME280;36272;59.400;17.982;2023-04-21T12:26:06;102004.25;;;42.14;22.93
50364;BME280;36272;59.400;17.982;2023-04-21T12:31:08;101997.69;;;42.39;22.96
50364;BME280;36272;59.400;17.982;2023-04-21T12:36:10;101990.28;;;40.06;23.87
50364;BME280;36272;59.400;17.982;2023-04-21T12:41:11;101982.47;;;37.57;25.35
50364;BME280;36272;59.400;17.982;2023-04-21T12:46:13;101980.59;;;35.71;26.14
50364;BME280;36272;59.400;17.982;2023-04-21T12:51:15;101967.00;;;37.98;24.85
50364;BME280;36272;59.400;17.982;2023-04-21T12:56:17;101967.56;;;40.43;23.63
50364;BME280;36272;59.400;17.982;2023-04-21T13:01:23;101955.44;;;39.74;23.34
50364;BME280;36272;59.400;17.982;2023-04-21T13:06:24;101959.94;;;40.22;23.00
50364;BME280;36272;59.400;17.982;2023-04-21T13:11:26;101949.97;;;39.15;23.47
50364;BME280;36272;59.400;17.982;2023-04-21T13:16:29;101936.59;;;37.55;24.41
50364;BME280;36272;59.400;17.982;2023-04-21T13:21:31;101940.44;;;36.35;25.16
50364;BME280;36272;59.400;17.982;2023-04-21T13:26:33;101930.19;;;37.88;24.00
50364;BME280;36272;59.400;17.982;2023-04-21T13:31:35;101917.03;;;39.64;23.06
50364;BME280;36272;59.400;17.982;2023-04-21T13:36:37;101912.56;;;41.18;22.18
50364;BME280;36272;59.400;17.982;2023-04-21T13:41:39;101911.41;;;41.80;21.67
50364;BME280;36272;59.400;17.982;2023-04-21T13:46:40;101898.03;;;42.05;21.55
50364;BME280;36272;59.400;17.982;2023-04-21T13:51:42;101899.78;;;42.34;21.31
50364;BME280;36272;59.400;17.982;2023-04-21T13:56:44;101890.28;;;42.20;21.07
50364;BME280;36272;59.400;17.982;2023-04-21T14:01:46;101874.59;;;42.65;21.21
50364;BME280;36272;59.400;17.982;2023-04-21T14:06:48;101873.41;;;43.28;20.84
50364;BME280;36272;59.400;17.982;2023-04-21T14:11:51;101878.78;;;43.15;20.91
50364;BME280;36272;59.400;17.982;2023-04-21T14:16:52;101872.31;;;43.18;20.51
50364;BME280;36272;59.400;17.982;2023-04-21T14:21:54;101857.09;;;43.16;20.44
50364;BME280;36272;59.400;17.982;2023-04-21T14:26:56;101854.56;;;43.52;20.45
50364;BME280;36272;59.400;17.982;2023-04-21T14:31:57;101855.84;;;43.48;20.17
50364;BME280;36272;59.400;17.982;2023-04-21T14:36:59;101851.63;;;43.05;20.55
50364;BME280;36272;59.400;17.982;2023-04-21T14:42:01;101833.44;;;42.82;20.59
50364;BME280;36272;59.400;17.982;2023-04-21T14:47:03;101832.66;;;42.78;20.38
50364;BME280;36272;59.400;17.982;2023-04-21T14:52:04;101819.59;;;42.26;20.76
50364;BME280;36272;59.400;17.982;2023-04-21T14:57:07;101806.88;;;41.01;21.04
50364;BME280;36272;59.400;17.982;2023-04-21T15:02:09;101788.31;;;39.49;21.35
50364;BME280;36272;59.400;17.982;2023-04-21T15:07:12;101786.56;;;38.23;22.34
50364;BME280;36272;59.400;17.982;2023-04-21T15:12:14;101786.59;;;36.99;22.98
50364;BME280;36272;59.400;17.982;2023-04-21T15:17:16;101773.50;;;36.15;23.41
50364;BME280;36272;59.400;17.982;2023-04-21T15:22:17;101767.75;;;35.15;23.79
50364;BME280;36272;59.400;17.982;2023-04-21T15:27:19;101766.88;;;34.04;24.50
50364;BME280;36272;59.400;17.982;2023-04-21T15:32:21;101773.06;;;33.08;25.33
50364;BME280;36272;59.400;17.982;2023-04-21T15:37:22;101766.06;;;32.45;25.92
50364;BME280;36272;59.400;17.982;2023-04-21T15:42:24;101762.41;;;31.82;26.18
50364;BME280;36272;59.400;17.982;2023-04-21T15:47:26;101755.16;;;31.10;26.62
50364;BME280;36272;59.400;17.982;2023-04-21T15:52:28;101754.38;;;30.29;27.24
50364;BME280;36272;59.400;17.982;2023-04-21T15:57:29;101767.13;;;29.38;29.21
50364;BME280;36272;59.400;17.982;2023-04-21T16:02:31;101757.13;;;28.40;30.29
50364;BME280;36272;59.400;17.982;2023-04-21T16:07:33;101752.91;;;27.71;31.54
50364;BME280;36272;59.400;17.982;2023-04-21T16:12:34;101743.16;;;26.96;32.41
50364;BME280;36272;59.400;17.982;2023-04-21T16:17:36;101749.22;;;26.42;32.99
50364;BME280;36272;59.400;17.982;2023-04-21T16:22:38;101743.78;;;25.81;33.43
50364;BME280;36272;59.400;17.982;2023-04-21T16:27:40;101734.97;;;25.32;34.23
50364;BME280;36272;59.400;17.982;2023-04-21T16:32:41;101724.78;;;24.80;34.77
50364;BME280;36272;59.400;17.982;2023-04-21T16:37:43;101735.44;;;24.39;35.20
50364;BME280;36272;59.400;17.982;2023-04-21T16:42:45;101734.50;;;23.95;36.59
50364;BME280;36272;59.400;17.982;2023-04-21T16:47:46;101731.06;;;23.49;37.01
50364;BME280;36272;59.400;17.982;2023-04-21T16:52:48;101722.41;;;23.02;37.39
50364;BME280;36272;59.400;17.982;2023-04-21T16:57:52;101702.78;;;22.50;38.59
50364;BME280;36272;59.400;17.982;2023-04-21T17:02:54;101706.13;;;22.10;38.66
50364;BME280;36272;59.400;17.982;2023-04-21T17:07:56;101705.41;;;21.74;38.61
50364;BME280;36272;59.400;17.982;2023-04-21T17:12:58;101713.81;;;21.46;38.79
50364;BME280;36272;59.400;17.982;2023-04-21T17:17:59;101709.97;;;21.21;39.30
50364;BME280;36272;59.400;17.982;2023-04-21T17:23:01;101720.78;;;20.90;39.55
50364;BME280;36272;59.400;17.982;2023-04-21T17:28:07;101699.19;;;20.53;40.35
50364;BME280;36272;59.400;17.982;2023-04-21T17:33:08;101712.63;;;20.27;40.36
50364;BME280;36272;59.400;17.982;2023-04-21T17:38:10;101722.50;;;19.95;40.71
50364;BME280;36272;59.400;17.982;2023-04-21T17:43:12;101713.06;;;19.70;41.48
50364;BME280;36272;59.400;17.982;2023-04-21T17:48:13;101712.31;;;19.42;41.84
50364;BME280;36272;59.400;17.982;2023-04-21T17:53:15;101708.28;;;19.17;42.19
50364;BME280;36272;59.400;17.982;2023-04-21T17:58:17;101702.25;;;18.88;42.78
50364;BME280;36272;59.400;17.982;2023-04-21T18:03:19;101707.38;;;18.62;43.31
50364;BME280;36272;59.400;17.982;2023-04-21T18:08:25;101684.06;;;18.39;43.66
50364;BME280;36272;59.400;17.982;2023-04-21T18:13:36;101682.16;;;18.17;43.94
50364;BME280;36272;59.400;17.982;2023-04-21T18:18:37;101706.22;;;17.96;44.45
50364;BME280;36272;59.400;17.982;2023-04-21T18:23:42;101699.66;;;17.75;44.41
50364;BME280;36272;59.400;17.982;2023-04-21T18:28:44;101699.31;;;17.54;45.08
50364;BME280;36272;59.400;17.982;2023-04-21T18:33:47;101681.84;;;17.28;45.09
50364;BME280;36272;59.400;17.982;2023-04-21T18:38:48;101697.47;;;17.09;45.50
50364;BME280;36272;59.400;17.982;2023-04-21T18:43:50;101703.03;;;16.90;45.62
50364;BME280;36272;59.400;17.982;2023-04-21T18:48:52;101686.19;;;16.71;45.93
50364;BME280;36272;59.400;17.982;2023-04-21T18:53:56;101669.00;;;16.48;46.41
50364;BME280;36272;59.400;17.982;2023-04-21T18:58:58;101687.22;;;16.29;46.49
50364;BME280;36272;59.400;17.982;2023-04-21T19:04:00;101691.13;;;16.10;46.94
50364;BME280;36272;59.400;17.982;2023-04-21T19:09:02;101683.41;;;15.89;47.25
50364;BME280;36272;59.400;17.982;2023-04-21T19:14:05;101685.31;;;15.70;47.63
50364;BME280;36272;59.400;17.982;2023-04-21T19:19:10;101682.72;;;15.52;47.76
50364;BME280;36272;59.400;17.982;2023-04-21T19:24:15;101663.34;;;15.31;48.33
50364;BME280;36272;59.400;17.982;2023-04-21T19:29:17;101682.63;;;15.16;48.22
50364;BME280;36272;59.400;17.982;2023-04-21T19:34:18;101674.63;;;14.97;48.71
50364;BME280;36272;59.400;17.982;2023-04-21T19:39:20;101681.69;;;14.80;48.92
50364;BME280;36272;59.400;17.982;2023-04-21T19:44:22;101679.81;;;14.62;49.35
50364;BME280;36272;59.400;17.982;2023-04-21T19:49:29;101668.59;;;14.46;50.09
50364;BME280;36272;59.400;17.982;2023-04-21T19:54:31;101675.63;;;14.28;50.07
50364;BME280;36272;59.400;17.982;2023-04-21T19:59:33;101670.59;;;14.13;50.24
50364;BME280;36272;59.400;17.982;2023-04-21T20:04:35;101680.06;;;13.97;50.69
50364;BME280;36272;59.400;17.982;2023-04-21T20:09:37;101659.13;;;13.81;50.93
50364;BME280;36272;59.400;17.982;2023-04-21T20:14:39;101662.97;;;13.66;51.08
50364;BME280;36272;59.400;17.982;2023-04-21T20:19:40;101659.78;;;13.51;51.30
50364;BME280;36272;59.400;17.982;2023-04-21T20:24:43;101654.69;;;13.36;51.65
50364;BME280;36272;59.400;17.982;2023-04-21T20:29:44;101650.66;;;13.20;51.81
50364;BME280;36272;59.400;17.982;2023-04-21T20:34:47;101656.13;;;13.06;52.43
50364;BME280;36272;59.400;17.982;2023-04-21T20:39:48;101657.03;;;12.93;52.62
50364;BME280;36272;59.400;17.982;2023-04-21T20:44:50;101652.56;;;12.81;52.90
50364;BME280;36272;59.400;17.982;2023-04-21T20:49:57;101627.03;;;12.64;53.55
50364;BME280;36272;59.400;17.982;2023-04-21T20:54:59;101645.66;;;12.53;53.35
50364;BME280;36272;59.400;17.982;2023-04-21T21:00:01;101639.50;;;12.39;53.54
50364;BME280;36272;59.400;17.982;2023-04-21T21:05:05;101636.69;;;12.20;53.80
50364;BME280;36272;59.400;17.982;2023-04-21T21:10:07;101631.75;;;12.03;53.92
50364;BME280;36272;59.400;17.982;2023-04-21T21:20:15;101623.53;;;11.78;54.28
50364;BME280;36272;59.400;17.982;2023-04-21T21:25:16;101625.59;;;11.69;54.62
50364;BME280;36272;59.400;17.982;2023-04-21T21:30:18;101621.47;;;11.60;54.95
50364;BME280;36272;59.400;17.982;2023-04-21T21:35:20;101616.53;;;11.50;54.86
50364;BME280;36272;59.400;17.982;2023-04-21T21:40:22;101619.41;;;11.42;55.05
50364;BME280;36272;59.400;17.982;2023-04-21T21:45:24;101611.78;;;11.32;55.17
50364;BME280;36272;59.400;17.982;2023-04-21T21:50:26;101606.22;;;11.20;55.29
50364;BME280;36272;59.400;17.982;2023-04-21T21:55:28;101604.56;;;11.12;54.97
50364;BME280;36272;59.400;17.982;2023-04-21T22:00:29;101598.19;;;11.00;55.28
50364;BME280;36272;59.400;17.982;2023-04-21T22:05:31;101604.53;;;10.92;55.29
50364;BME280;36272;59.400;17.982;2023-04-21T22:10:34;101595.03;;;10.83;55.41
50364;BME280;36272;59.400;17.982;2023-04-21T22:15:36;101585.34;;;10.75;55.84
50364;BME280;36272;59.400;17.982;2023-04-21T22:20:39;101593.75;;;10.65;55.70
50364;BME280;36272;59.400;17.982;2023-04-21T22:25:41;101592.28;;;10.56;55.96
50364;BME280;36272;59.400;17.982;2023-04-21T22:30:43;101591.66;;;10.47;56.31
50364;BME280;36272;59.400;17.982;2023-04-21T22:35:45;101589.13;;;10.39;56.37
50364;BME280;36272;59.400;17.982;2023-04-21T22:40:46;101585.78;;;10.30;56.52
50364;BME280;36272;59.400;17.982;2023-04-21T22:45:48;101578.31;;;10.19;56.67
50364;BME280;36272;59.400;17.982;2023-04-21T22:50:50;101581.53;;;10.07;56.64
50364;BME280;36272;59.400;17.982;2023-04-21T22:55:51;101571.22;;;9.97;56.93
50364;BME280;36272;59.400;17.982;2023-04-21T23:00:53;101574.88;;;9.90;57.05
50364;BME280;36272;59.400;17.982;2023-04-21T23:05:55;101555.72;;;9.79;57.28
50364;BME280;36272;59.400;17.982;2023-04-21T23:10:57;101564.88;;;9.70;57.07
50364;BME280;36272;59.400;17.982;2023-04-21T23:15:59;101558.25;;;9.59;57.10
50364;BME280;36272;59.400;17.982;2023-04-21T23:21:00;101554.06;;;9.50;57.17
50364;BME280;36272;59.400;17.982;2023-04-21T23:26:02;101553.41;;;9.41;57.35
50364;BME280;36272;59.400;17.982;2023-04-21T23:31:04;101550.28;;;9.37;57.71
50364;BME280;36272;59.400;17.982;2023-04-21T23:36:06;101549.38;;;9.30;57.76
50364;BME280;36272;59.400;17.982;2023-04-21T23:41:08;101549.56;;;9.22;57.83
50364;BME280;36272;59.400;17.982;2023-04-21T23:46:09;101546.75;;;9.08;57.75
50364;BME280;36272;59.400;17.982;2023-04-21T23:51:11;101532.28;;;8.96;57.83
50364;BME280;36272;59.400;17.982;2023-04-21T23:56:13;101527.06;;;8.88;57.96
